createdAt,value
2022-08-30T00:03:54.249Z,5.18
2022-08-30T00:08:56.524Z,5.03
2022-08-30T00:13:58.148Z,4.93
2022-08-30T00:19:00.889Z,5.20
2022-08-30T00:24:02.369Z,5.20
2022-08-30T00:29:03.679Z,5.17
2022-08-30T00:34:04.856Z,5.40
2022-08-30T00:39:06.041Z,5.57
2022-08-30T00:44:07.714Z,5.90
2022-08-30T00:49:11.964Z,5.63
2022-08-30T00:54:14.067Z,6.20
2022-08-30T00:59:15.504Z,5.37
2022-08-30T01:04:19.301Z,5.73
2022-08-30T01:09:21.553Z,5.60
2022-08-30T01:14:25.908Z,5.70
2022-08-30T01:19:54.410Z,6.10
2022-08-30T01:24:57.670Z,5.93
2022-08-30T01:29:59.126Z,6.77
2022-08-30T01:35:00.783Z,6.53
2022-08-30T01:40:02.646Z,6.50
2022-08-30T01:45:06.973Z,7.37
2022-08-30T01:50:10.463Z,6.93
2022-08-30T01:55:11.708Z,7.00
2022-08-30T02:00:13.625Z,6.47
2022-08-30T02:05:15.451Z,6.87
2022-08-30T02:10:16.658Z,7.00
2022-08-30T02:15:18.158Z,6.33
2022-08-30T02:20:20.204Z,7.27
2022-08-30T02:25:21.586Z,8.20
2022-08-30T02:30:23.255Z,6.53
2022-08-30T02:35:24.945Z,7.03
2022-08-30T02:40:26.194Z,7.07
2022-08-30T02:45:28.035Z,7.83
2022-08-30T02:50:30.472Z,7.57
2022-08-30T02:55:31.901Z,7.37
2022-08-30T03:00:33.841Z,8.40
2022-08-30T03:05:35.124Z,7.13
2022-08-30T03:10:39.268Z,7.20
2022-08-30T03:15:41.144Z,7.10
2022-08-30T03:20:43.989Z,7.57
2022-08-30T03:25:49.510Z,7.63
2022-08-30T03:30:50.996Z,7.37
2022-08-30T03:35:52.211Z,7.47
2022-08-30T03:40:53.672Z,7.63
2022-08-30T03:45:55.032Z,7.30
2022-08-30T03:50:56.903Z,7.53
2022-08-30T03:55:58.262Z,8.20
2022-08-30T04:00:59.657Z,7.73
2022-08-30T04:06:01.233Z,8.87
2022-08-30T04:11:02.527Z,8.53
2022-08-30T04:16:06.441Z,8.77
2022-08-30T04:21:11.302Z,8.43
2022-08-30T04:26:15.008Z,8.33
2022-08-30T04:31:18.275Z,8.87
2022-08-30T04:36:19.648Z,8.93
2022-08-30T04:41:23.826Z,8.50
2022-08-30T04:46:24.995Z,9.13
2022-08-30T04:51:26.186Z,9.10
2022-08-30T04:56:27.494Z,8.97
2022-08-30T05:01:32.064Z,8.50
2022-08-30T05:06:45.736Z,9.13
2022-08-30T05:11:47.385Z,9.23
2022-08-30T05:16:48.841Z,9.90
2022-08-30T05:21:50.309Z,9.07
2022-08-30T05:26:51.482Z,8.63
2022-08-30T05:31:52.868Z,9.37
2022-08-30T05:36:54.172Z,9.67
2022-08-30T05:41:59.063Z,9.00
2022-08-30T05:47:00.728Z,9.70
2022-08-30T05:52:03.822Z,9.27
2022-08-30T05:57:05.045Z,9.63
2022-08-30T06:02:06.675Z,8.37
2022-08-30T06:07:10.545Z,9.63
2022-08-30T06:12:14.136Z,8.80
2022-08-30T06:17:15.292Z,9.52
2022-08-30T06:22:16.505Z,9.02
2022-08-30T06:27:17.878Z,8.75
2022-08-30T06:32:19.085Z,9.18
2022-08-30T06:37:29.195Z,8.82
2022-08-30T06:42:32.640Z,9.43
2022-08-30T06:47:33.977Z,8.80
2022-08-30T06:52:35.248Z,8.77
2022-08-30T06:57:37.124Z,9.00
2022-08-30T07:02:39.139Z,9.50
2022-08-30T07:07:40.817Z,8.60
2022-08-30T07:12:41.987Z,8.85
2022-08-30T07:18:01.703Z,9.18
2022-08-30T07:23:03.131Z,8.60
2022-08-30T07:28:05.559Z,8.75
2022-08-30T07:33:07.197Z,7.80
2022-08-30T07:38:13.553Z,8.05
2022-08-30T07:43:14.992Z,8.35
2022-08-30T07:48:16.159Z,7.53
2022-08-30T07:53:17.382Z,7.50
2022-08-30T07:58:19.062Z,8.25
2022-08-30T08:03:20.572Z,6.88
2022-08-30T08:08:22.557Z,7.55
2022-08-30T08:13:24.192Z,6.78
2022-08-30T08:18:31.045Z,6.90
2022-08-30T08:23:32.397Z,6.22
2022-08-30T08:28:33.780Z,6.80
2022-08-30T08:33:35.040Z,6.07
2022-08-30T08:38:36.339Z,6.00
2022-08-30T08:43:40.646Z,5.93
2022-08-30T08:48:59.696Z,5.40
2022-08-30T08:54:07.724Z,5.75
2022-08-30T08:59:10.973Z,5.35
2022-08-30T09:04:16.977Z,5.05
2022-08-30T09:09:30.538Z,4.90
2022-08-30T09:14:46.088Z,4.72
2022-08-30T09:19:51.077Z,4.95
2022-08-30T09:24:59.635Z,4.15
2022-08-30T09:30:03.632Z,4.32
2022-08-30T09:35:11.307Z,3.90
2022-08-30T09:40:20.765Z,4.65
2022-08-30T09:45:31.319Z,4.03
2022-08-30T09:50:35.661Z,4.47
2022-08-30T09:55:37.404Z,3.47
2022-08-30T10:00:56.027Z,3.30
2022-08-30T10:06:33.508Z,3.45
2022-08-30T10:11:46.818Z,3.33
2022-08-30T10:16:57.469Z,3.20
2022-08-30T10:22:17.601Z,3.70
2022-08-30T10:27:57.343Z,3.20
2022-08-30T10:33:09.536Z,3.00
2022-08-30T10:38:23.781Z,3.55
2022-08-30T10:43:28.046Z,3.40
2022-08-30T10:48:36.874Z,3.50
2022-08-30T10:53:44.930Z,3.67
2022-08-30T10:58:47.237Z,3.10
2022-08-30T11:04:22.284Z,3.95
2022-08-30T11:09:35.944Z,3.40
2022-08-30T11:14:43.386Z,3.60
2022-08-30T11:19:44.894Z,3.17
2022-08-30T11:25:10.975Z,3.42
2022-08-30T11:30:26.458Z,3.72
2022-08-30T11:35:49.333Z,3.10
2022-08-30T11:40:53.535Z,3.35
2022-08-30T11:46:14.492Z,3.10
2022-08-30T11:51:37.726Z,3.15
2022-08-30T11:56:54.452Z,3.22
2022-08-30T12:01:57.263Z,3.08
2022-08-30T12:07:05.887Z,3.00
2022-08-30T12:12:08.581Z,3.60
2022-08-30T12:17:40.109Z,3.03
2022-08-30T12:22:41.527Z,2.92
2022-08-30T12:27:42.858Z,3.40
2022-08-30T12:32:46.963Z,3.42
2022-08-30T12:37:59.792Z,3.20
2022-08-30T12:43:05.060Z,2.80
2022-08-30T12:48:14.088Z,2.80
2022-08-30T12:53:36.835Z,2.95
2022-08-30T12:58:50.677Z,2.63
2022-08-30T13:04:02.706Z,2.70
2022-08-30T13:09:04.151Z,2.60
2022-08-30T13:14:38.244Z,2.58
2022-08-30T13:20:05.216Z,2.70
2022-08-30T13:25:08.760Z,2.70
2022-08-30T13:30:14.571Z,2.78
2022-08-30T13:35:16.208Z,2.60
2022-08-30T13:40:20.758Z,2.60
2022-08-30T13:50:43.581Z,2.75
2022-08-30T13:55:45.273Z,2.30
2022-08-30T14:00:46.926Z,2.60
2022-08-30T14:05:49.851Z,2.10
2022-08-30T14:10:52.309Z,2.38
2022-08-30T14:16:26.859Z,2.05
2022-08-30T14:21:15.725Z,2.60
2022-08-30T14:26:22.635Z,2.80
2022-08-30T14:31:24.351Z,2.20
2022-08-30T14:36:25.684Z,2.50
2022-08-30T14:41:27.388Z,2.20
2022-08-30T14:46:28.674Z,2.10
2022-08-30T14:51:29.977Z,2.28
2022-08-30T14:56:31.272Z,2.50
2022-08-30T15:01:37.294Z,1.73
2022-08-30T15:06:40.461Z,2.08
2022-08-30T15:11:42.804Z,2.03
2022-08-30T15:16:47.672Z,2.20
2022-08-30T15:21:51.369Z,2.38
2022-08-30T15:26:52.896Z,2.42
2022-08-30T15:31:54.194Z,2.63
2022-08-30T15:36:56.763Z,2.92
2022-08-30T15:42:01.005Z,2.22
2022-08-30T15:47:03.276Z,1.95
2022-08-30T15:52:05.056Z,1.88
2022-08-30T15:57:08.580Z,1.65
2022-08-30T16:02:10.370Z,2.28
2022-08-30T16:07:11.924Z,1.92
2022-08-30T16:12:21.174Z,2.08
2022-08-30T16:17:24.705Z,1.85
2022-08-30T16:22:27.121Z,1.85
2022-08-30T16:27:28.280Z,1.90
2022-08-30T16:32:29.580Z,1.73
2022-08-30T16:37:31.221Z,1.90
2022-08-30T16:42:33.290Z,1.70
2022-08-30T16:47:35.073Z,1.70
2022-08-30T16:52:36.574Z,1.70
2022-08-30T16:57:38.618Z,2.45
2022-08-30T17:02:45.265Z,1.90
2022-08-30T17:07:55.555Z,1.80
2022-08-30T17:12:57.107Z,1.48
2022-08-30T17:17:58.553Z,2.22
2022-08-30T17:23:02.175Z,1.80
2022-08-30T17:28:04.852Z,1.98
2022-08-30T17:33:07.577Z,2.03
2022-08-30T17:38:09.459Z,1.73
2022-08-30T17:43:13.081Z,1.67
2022-08-30T17:48:15.709Z,1.80
2022-08-30T17:53:17.061Z,1.90
2022-08-30T17:58:18.566Z,1.85
2022-08-30T18:03:23.124Z,1.88
2022-08-30T18:08:25.406Z,1.60
2022-08-30T18:13:27.244Z,1.52
2022-08-30T18:18:29.812Z,2.03
2022-08-30T18:23:31.813Z,1.70
2022-08-30T18:28:34.084Z,1.77
2022-08-30T18:33:35.639Z,1.67
2022-08-30T18:38:38.139Z,1.75
2022-08-30T18:43:40.401Z,1.50
2022-08-30T18:48:43.978Z,1.92
2022-08-30T18:53:46.634Z,1.42
2022-08-30T18:58:48.541Z,1.25
2022-08-30T19:03:56.845Z,1.40
2022-08-30T19:09:04.276Z,1.50
2022-08-30T19:14:10.831Z,1.75
2022-08-30T19:19:14.837Z,1.63
2022-08-30T19:24:17.784Z,1.58
2022-08-30T19:29:20.097Z,2.50
2022-08-30T19:34:21.242Z,1.35
2022-08-30T19:39:23.605Z,1.30
2022-08-30T19:44:25.161Z,1.55
2022-08-30T19:49:26.500Z,1.92
2022-08-30T19:54:27.961Z,1.70
2022-08-30T19:59:29.201Z,1.70
2022-08-30T20:04:32.778Z,1.92
2022-08-30T20:09:34.164Z,1.70
2022-08-30T20:14:38.201Z,1.85
2022-08-30T20:19:39.888Z,1.70
2022-08-30T20:24:43.546Z,1.40
2022-08-30T20:29:46.989Z,1.77
2022-08-30T20:34:48.372Z,1.80
2022-08-30T20:39:49.903Z,1.40
2022-08-30T20:44:52.657Z,1.80
2022-08-30T20:49:54.121Z,1.80
2022-08-30T20:54:55.286Z,1.60
2022-08-30T21:00:00.180Z,1.83
2022-08-30T21:05:02.959Z,1.50
2022-08-30T21:10:07.653Z,1.77
2022-08-30T21:15:33.777Z,1.85
2022-08-30T21:20:32.053Z,1.70
2022-08-30T21:25:37.100Z,1.50
2022-08-30T21:30:38.463Z,1.58
2022-08-30T21:35:58.251Z,1.52
2022-08-30T21:40:59.497Z,1.77
2022-08-30T21:46:06.039Z,1.65
2022-08-30T21:51:09.488Z,1.80
2022-08-30T21:56:20.871Z,1.63
2022-08-30T22:01:25.718Z,1.40
2022-08-30T22:06:30.793Z,1.40
2022-08-30T22:11:34.260Z,1.83
2022-08-30T22:16:36.545Z,1.40
2022-08-30T22:21:41.073Z,1.60
2022-08-30T22:26:44.810Z,1.52
2022-08-30T22:31:45.997Z,1.65
2022-08-30T22:36:47.590Z,1.50
2022-08-30T22:41:49.685Z,1.23
2022-08-30T22:46:50.872Z,1.60
2022-08-30T22:51:52.363Z,1.48
2022-08-30T22:56:54.356Z,1.50
2022-08-30T23:01:55.843Z,1.83
2022-08-30T23:06:57.161Z,1.30
2022-08-30T23:11:58.567Z,1.42
2022-08-30T23:17:00.105Z,1.88
2022-08-30T23:22:01.291Z,1.50
2022-08-30T23:27:21.043Z,1.50
2022-08-30T23:32:40.999Z,1.77
2022-08-30T23:38:00.653Z,1.50
2022-08-30T23:43:20.364Z,1.70
2022-08-30T23:48:40.290Z,1.90
2022-08-30T23:54:10.304Z,2.00
2022-08-30T23:59:30.164Z,1.77
